sensor_id;sensor_type;location;lat;lon;timestamp;P1;durP1;ratioP1;P2;durP2;ratioP2
19089;SDS011;9677;50.656;13.064;2023-05-07T00:00:41;10.90;;;9.80;;
19089;SDS011;9677;50.656;13.064;2023-05-07T00:03:10;10.83;;;9.83;;
19089;SDS011;9677;50.656;13.064;2023-05-07T00:05:42;10.47;;;9.47;;
19089;SDS011;9677;50.656;13.064;2023-05-07T00:08:10;11.33;;;10.23;;
19089;SDS011;9677;50.656;13.064;2023-05-07T00:10:39;11.70;;;10.50;;
19089;SDS011;9677;50.656;13.064;2023-05-07T00:13:11;11.23;;;10.13;;
19089;SDS011;9677;50.656;13.064;2023-05-07T00:15:39;10.93;;;9.90;;
19089;SDS011;9677;50.656;13.064;2023-05-07T00:18:08;10.97;;;9.87;;
19089;SDS011;9677;50.656;13.064;2023-05-07T00:20:37;11.10;;;10.00;;
19089;SDS011;9677;50.656;13.064;2023-05-07T00:23:08;11.17;;;10.07;;
19089;SDS011;9677;50.656;13.064;2023-05-07T00:25:37;11.30;;;10.20;;
19089;SDS011;9677;50.656;13.064;2023-05-07T00:28:05;11.30;;;10.20;;
19089;SDS011;9677;50.656;13.064;2023-05-07T00:30:34;11.30;;;10.10;;
19089;SDS011;9677;50.656;13.064;2023-05-07T00:33:02;11.63;;;10.43;;
19089;SDS011;9677;50.656;13.064;2023-05-07T00:35:31;11.13;;;10.00;;
19089;SDS011;9677;50.656;13.064;2023-05-07T00:38:00;11.43;;;10.23;;
19089;SDS011;9677;50.656;13.064;2023-05-07T00:40:30;11.77;;;10.60;;
19089;SDS011;9677;50.656;13.064;2023-05-07T00:42:58;11.43;;;10.23;;
19089;SDS011;9677;50.656;13.064;2023-05-07T00:45:27;11.30;;;10.20;;
19089;SDS011;9677;50.656;13.064;2023-05-07T00:47:57;10.70;;;9.70;;
19089;SDS011;9677;50.656;13.064;2023-05-07T00:50:28;11.27;;;10.17;;
19089;SDS011;9677;50.656;13.064;2023-05-07T00:52:58;11.13;;;10.00;;
19089;SDS011;9677;50.656;13.064;2023-05-07T00:55:27;11.50;;;10.40;;
19089;SDS011;9677;50.656;13.064;2023-05-07T00:57:58;11.70;;;10.50;;
19089;SDS011;9677;50.656;13.064;2023-05-07T01:00:27;11.80;;;10.37;;
19089;SDS011;9677;50.656;13.064;2023-05-07T01:02:55;11.43;;;10.33;;
19089;SDS011;9677;50.656;13.064;2023-05-07T01:05:25;11.50;;;10.30;;
19089;SDS011;9677;50.656;13.064;2023-05-07T01:07:56;11.33;;;10.20;;
19089;SDS011;9677;50.656;13.064;2023-05-07T01:10:25;11.83;;;10.63;;
19089;SDS011;9677;50.656;13.064;2023-05-07T01:12:55;11.33;;;10.27;;
19089;SDS011;9677;50.656;13.064;2023-05-07T01:15:26;11.57;;;10.37;;
19089;SDS011;9677;50.656;13.064;2023-05-07T01:17:55;11.47;;;10.37;;
19089;SDS011;9677;50.656;13.064;2023-05-07T01:20:30;11.27;;;10.17;;
19089;SDS011;9677;50.656;13.064;2023-05-07T01:23:01;10.93;;;9.83;;
19089;SDS011;9677;50.656;13.064;2023-05-07T01:25:32;10.93;;;9.83;;
19089;SDS011;9677;50.656;13.064;2023-05-07T01:28:01;11.37;;;10.17;;
19089;SDS011;9677;50.656;13.064;2023-05-07T01:30:33;11.03;;;9.93;;
19089;SDS011;9677;50.656;13.064;2023-05-07T01:33:07;10.77;;;9.77;;
19089;SDS011;9677;50.656;13.064;2023-05-07T01:35:40;11.23;;;10.13;;
19089;SDS011;9677;50.656;13.064;2023-05-07T01:38:14;11.50;;;10.40;;
19089;SDS011;9677;50.656;13.064;2023-05-07T01:40:42;10.93;;;9.83;;
19089;SDS011;9677;50.656;13.064;2023-05-07T01:43:11;11.03;;;9.93;;
19089;SDS011;9677;50.656;13.064;2023-05-07T01:45:40;11.27;;;10.17;;
19089;SDS011;9677;50.656;13.064;2023-05-07T01:48:11;11.47;;;10.30;;
19089;SDS011;9677;50.656;13.064;2023-05-07T01:50:40;10.90;;;9.80;;
19089;SDS011;9677;50.656;13.064;2023-05-07T01:53:10;11.97;;;10.20;;
19089;SDS011;9677;50.656;13.064;2023-05-07T01:55:40;11.37;;;10.17;;
19089;SDS011;9677;50.656;13.064;2023-05-07T01:58:08;10.93;;;9.93;;
19089;SDS011;9677;50.656;13.064;2023-05-07T02:00:37;11.53;;;10.43;;
19089;SDS011;9677;50.656;13.064;2023-05-07T02:03:07;12.20;;;10.60;;
19089;SDS011;9677;50.656;13.064;2023-05-07T02:05:43;10.97;;;9.87;;
19089;SDS011;9677;50.656;13.064;2023-05-07T02:08:28;11.23;;;10.13;;
19089;SDS011;9677;50.656;13.064;2023-05-07T02:10:58;10.80;;;9.80;;
19089;SDS011;9677;50.656;13.064;2023-05-07T02:13:28;10.90;;;9.80;;
19089;SDS011;9677;50.656;13.064;2023-05-07T02:15:59;11.70;;;10.50;;
19089;SDS011;9677;50.656;13.064;2023-05-07T02:18:28;11.23;;;10.03;;
19089;SDS011;9677;50.656;13.064;2023-05-07T02:20:57;11.17;;;10.03;;
19089;SDS011;9677;50.656;13.064;2023-05-07T02:23:25;11.50;;;10.37;;
19089;SDS011;9677;50.656;13.064;2023-05-07T02:25:54;11.30;;;10.20;;
19089;SDS011;9677;50.656;13.064;2023-05-07T02:28:23;11.77;;;10.67;;
19089;SDS011;9677;50.656;13.064;2023-05-07T02:31:03;11.03;;;9.93;;
19089;SDS011;9677;50.656;13.064;2023-05-07T02:33:32;11.00;;;9.90;;
19089;SDS011;9677;50.656;13.064;2023-05-07T02:36:05;11.40;;;10.30;;
19089;SDS011;9677;50.656;13.064;2023-05-07T02:38:39;11.80;;;10.70;;
19089;SDS011;9677;50.656;13.064;2023-05-07T02:41:07;11.40;;;10.30;;
19089;SDS011;9677;50.656;13.064;2023-05-07T02:43:37;11.57;;;10.47;;
19089;SDS011;9677;50.656;13.064;2023-05-07T02:46:06;11.20;;;10.10;;
19089;SDS011;9677;50.656;13.064;2023-05-07T02:48:39;11.83;;;10.10;;
19089;SDS011;9677;50.656;13.064;2023-05-07T02:51:08;11.07;;;9.97;;
19089;SDS011;9677;50.656;13.064;2023-05-07T02:53:39;11.27;;;10.17;;
19089;SDS011;9677;50.656;13.064;2023-05-07T02:56:07;11.20;;;10.10;;
19089;SDS011;9677;50.656;13.064;2023-05-07T02:58:37;11.47;;;10.20;;
19089;SDS011;9677;50.656;13.064;2023-05-07T03:01:07;11.07;;;9.97;;
19089;SDS011;9677;50.656;13.064;2023-05-07T03:03:47;11.37;;;10.27;;
19089;SDS011;9677;50.656;13.064;2023-05-07T03:06:15;11.40;;;10.20;;
19089;SDS011;9677;50.656;13.064;2023-05-07T03:08:44;11.03;;;9.93;;
19089;SDS011;9677;50.656;13.064;2023-05-07T03:11:12;12.00;;;10.80;;
19089;SDS011;9677;50.656;13.064;2023-05-07T03:13:42;11.03;;;9.93;;
19089;SDS011;9677;50.656;13.064;2023-05-07T03:16:11;11.30;;;10.20;;
19089;SDS011;9677;50.656;13.064;2023-05-07T03:18:39;11.33;;;10.23;;
19089;SDS011;9677;50.656;13.064;2023-05-07T03:21:07;12.03;;;10.53;;
19089;SDS011;9677;50.656;13.064;2023-05-07T03:23:36;11.80;;;10.70;;
19089;SDS011;9677;50.656;13.064;2023-05-07T03:26:04;11.17;;;10.07;;
19089;SDS011;9677;50.656;13.064;2023-05-07T03:28:33;11.70;;;10.60;;
19089;SDS011;9677;50.656;13.064;2023-05-07T03:31:05;10.87;;;9.87;;
19089;SDS011;9677;50.656;13.064;2023-05-07T03:33:34;11.53;;;10.37;;
19089;SDS011;9677;50.656;13.064;2023-05-07T03:36:02;11.40;;;10.30;;
19089;SDS011;9677;50.656;13.064;2023-05-07T03:38:32;11.53;;;10.43;;
19089;SDS011;9677;50.656;13.064;2023-05-07T03:41:00;11.37;;;10.23;;
19089;SDS011;9677;50.656;13.064;2023-05-07T03:43:29;11.30;;;10.20;;
19089;SDS011;9677;50.656;13.064;2023-05-07T03:46:03;11.77;;;10.37;;
19089;SDS011;9677;50.656;13.064;2023-05-07T03:48:33;10.77;;;9.77;;
19089;SDS011;9677;50.656;13.064;2023-05-07T03:51:02;11.43;;;10.23;;
19089;SDS011;9677;50.656;13.064;2023-05-07T03:53:32;10.90;;;9.80;;
19089;SDS011;9677;50.656;13.064;2023-05-07T03:56:00;11.13;;;10.07;;
19089;SDS011;9677;50.656;13.064;2023-05-07T03:58:33;10.93;;;9.83;;
19089;SDS011;9677;50.656;13.064;2023-05-07T04:01:08;11.57;;;10.37;;
19089;SDS011;9677;50.656;13.064;2023-05-07T04:03:36;11.10;;;10.00;;
19089;SDS011;9677;50.656;13.064;2023-05-07T04:06:05;11.03;;;9.93;;
19089;SDS011;9677;50.656;13.064;2023-05-07T04:08:34;11.03;;;10.03;;
19089;SDS011;9677;50.656;13.064;2023-05-07T04:11:04;11.17;;;10.07;;
19089;SDS011;9677;50.656;13.064;2023-05-07T04:13:35;10.90;;;9.90;;
19089;SDS011;9677;50.656;13.064;2023-05-07T04:16:05;11.00;;;9.90;;
19089;SDS011;9677;50.656;13.064;2023-05-07T04:18:37;11.20;;;10.10;;
19089;SDS011;9677;50.656;13.064;2023-05-07T04:21:05;11.27;;;10.17;;
19089;SDS011;9677;50.656;13.064;2023-05-07T04:23:37;11.00;;;9.97;;
19089;SDS011;9677;50.656;13.064;2023-05-07T04:26:09;11.17;;;10.07;;
19089;SDS011;9677;50.656;13.064;2023-05-07T04:28:40;11.17;;;10.07;;
19089;SDS011;9677;50.656;13.064;2023-05-07T04:31:11;11.40;;;10.20;;
19089;SDS011;9677;50.656;13.064;2023-05-07T04:33:39;11.23;;;10.10;;
19089;SDS011;9677;50.656;13.064;2023-05-07T04:36:11;10.60;;;9.60;;
19089;SDS011;9677;50.656;13.064;2023-05-07T04:38:47;10.90;;;9.80;;
19089;SDS011;9677;50.656;13.064;2023-05-07T04:41:17;10.83;;;9.77;;
19089;SDS011;9677;50.656;13.064;2023-05-07T04:43:45;11.47;;;10.30;;
19089;SDS011;9677;50.656;13.064;2023-05-07T04:46:17;10.60;;;9.60;;
19089;SDS011;9677;50.656;13.064;2023-05-07T04:48:46;10.60;;;9.60;;
19089;SDS011;9677;50.656;13.064;2023-05-07T04:51:15;11.33;;;10.23;;
19089;SDS011;9677;50.656;13.064;2023-05-07T04:53:43;12.13;;;10.37;;
19089;SDS011;9677;50.656;13.064;2023-05-07T04:56:12;11.50;;;10.30;;
19089;SDS011;9677;50.656;13.064;2023-05-07T04:58:42;11.47;;;10.37;;
19089;SDS011;9677;50.656;13.064;2023-05-07T05:01:11;11.33;;;10.23;;
19089;SDS011;9677;50.656;13.064;2023-05-07T05:03:41;11.30;;;10.20;;
19089;SDS011;9677;50.656;13.064;2023-05-07T05:06:11;11.97;;;10.60;;
19089;SDS011;9677;50.656;13.064;2023-05-07T05:08:39;11.57;;;10.37;;
19089;SDS011;9677;50.656;13.064;2023-05-07T05:11:09;11.27;;;10.17;;
19089;SDS011;9677;50.656;13.064;2023-05-07T05:13:37;11.43;;;10.33;;
19089;SDS011;9677;50.656;13.064;2023-05-07T05:16:11;11.30;;;10.20;;
19089;SDS011;9677;50.656;13.064;2023-05-07T05:18:40;11.57;;;10.37;;
19089;SDS011;9677;50.656;13.064;2023-05-07T05:21:11;10.70;;;9.70;;
19089;SDS011;9677;50.656;13.064;2023-05-07T05:23:41;10.93;;;9.83;;
19089;SDS011;9677;50.656;13.064;2023-05-07T05:26:11;11.40;;;10.20;;
19089;SDS011;9677;50.656;13.064;2023-05-07T05:28:40;12.50;;;10.57;;
19089;SDS011;9677;50.656;13.064;2023-05-07T05:31:08;11.40;;;10.20;;
19089;SDS011;9677;50.656;13.064;2023-05-07T05:33:38;11.00;;;9.90;;
19089;SDS011;9677;50.656;13.064;2023-05-07T05:36:10;11.33;;;10.17;;
19089;SDS011;9677;50.656;13.064;2023-05-07T05:38:40;11.23;;;10.13;;
19089;SDS011;9677;50.656;13.064;2023-05-07T05:41:09;11.60;;;10.40;;
19089;SDS011;9677;50.656;13.064;2023-05-07T05:43:38;11.30;;;10.20;;
19089;SDS011;9677;50.656;13.064;2023-05-07T05:46:06;11.10;;;10.00;;
19089;SDS011;9677;50.656;13.064;2023-05-07T05:48:38;11.30;;;10.20;;
19089;SDS011;9677;50.656;13.064;2023-05-07T05:51:07;11.00;;;9.90;;
19089;SDS011;9677;50.656;13.064;2023-05-07T05:53:37;11.23;;;10.13;;
19089;SDS011;9677;50.656;13.064;2023-05-07T05:56:06;11.27;;;10.17;;
19089;SDS011;9677;50.656;13.064;2023-05-07T05:58:36;11.30;;;10.10;;
19089;SDS011;9677;50.656;13.064;2023-05-07T06:01:06;11.30;;;10.10;;
19089;SDS011;9677;50.656;13.064;2023-05-07T06:03:36;10.70;;;9.67;;
19089;SDS011;9677;50.656;13.064;2023-05-07T06:06:12;10.97;;;9.87;;
19089;SDS011;9677;50.656;13.064;2023-05-07T06:08:42;10.80;;;9.70;;
19089;SDS011;9677;50.656;13.064;2023-05-07T06:11:14;11.30;;;10.20;;
19089;SDS011;9677;50.656;13.064;2023-05-07T06:13:45;11.10;;;10.07;;
19089;SDS011;9677;50.656;13.064;2023-05-07T06:16:13;10.80;;;9.70;;
19089;SDS011;9677;50.656;13.064;2023-05-07T06:18:42;10.60;;;9.50;;
19089;SDS011;9677;50.656;13.064;2023-05-07T06:21:14;9.90;;;9.00;;
19089;SDS011;9677;50.656;13.064;2023-05-07T06:23:43;11.00;;;9.90;;
19089;SDS011;9677;50.656;13.064;2023-05-07T06:26:11;11.40;;;10.30;;
19089;SDS011;9677;50.656;13.064;2023-05-07T06:28:43;11.43;;;10.23;;
19089;SDS011;9677;50.656;13.064;2023-05-07T06:31:13;11.13;;;10.07;;
19089;SDS011;9677;50.656;13.064;2023-05-07T06:33:49;10.50;;;9.50;;
19089;SDS011;9677;50.656;13.064;2023-05-07T06:36:20;11.10;;;10.00;;
19089;SDS011;9677;50.656;13.064;2023-05-07T06:38:48;10.13;;;9.20;;
19089;SDS011;9677;50.656;13.064;2023-05-07T06:41:16;11.20;;;10.03;;
19089;SDS011;9677;50.656;13.064;2023-05-07T06:43:45;10.80;;;9.70;;
19089;SDS011;9677;50.656;13.064;2023-05-07T06:46:31;10.90;;;9.80;;
19089;SDS011;9677;50.656;13.064;2023-05-07T06:48:59;10.53;;;9.53;;
19089;SDS011;9677;50.656;13.064;2023-05-07T06:51:29;10.50;;;9.50;;
19089;SDS011;9677;50.656;13.064;2023-05-07T06:54:01;10.80;;;9.70;;
19089;SDS011;9677;50.656;13.064;2023-05-07T06:56:32;10.20;;;9.20;;
19089;SDS011;9677;50.656;13.064;2023-05-07T06:59:02;10.40;;;9.40;;
19089;SDS011;9677;50.656;13.064;2023-05-07T07:01:35;10.33;;;9.33;;
19089;SDS011;9677;50.656;13.064;2023-05-07T07:04:05;10.60;;;9.60;;
19089;SDS011;9677;50.656;13.064;2023-05-07T07:06:36;10.20;;;9.30;;
19089;SDS011;9677;50.656;13.064;2023-05-07T07:09:08;10.20;;;9.20;;
19089;SDS011;9677;50.656;13.064;2023-05-07T07:11:37;10.40;;;9.30;;
19089;SDS011;9677;50.656;13.064;2023-05-07T07:14:06;10.00;;;9.00;;
19089;SDS011;9677;50.656;13.064;2023-05-07T07:16:40;10.13;;;9.13;;
19089;SDS011;9677;50.656;13.064;2023-05-07T07:19:08;10.07;;;9.13;;
19089;SDS011;9677;50.656;13.064;2023-05-07T07:21:38;10.77;;;9.73;;
19089;SDS011;9677;50.656;13.064;2023-05-07T07:24:07;10.60;;;9.50;;
19089;SDS011;9677;50.656;13.064;2023-05-07T07:26:35;10.27;;;9.27;;
19089;SDS011;9677;50.656;13.064;2023-05-07T07:29:04;10.40;;;9.40;;
19089;SDS011;9677;50.656;13.064;2023-05-07T07:31:33;10.10;;;9.20;;
19089;SDS011;9677;50.656;13.064;2023-05-07T07:34:01;9.83;;;8.93;;
19089;SDS011;9677;50.656;13.064;2023-05-07T07:36:30;10.10;;;9.10;;
19089;SDS011;9677;50.656;13.064;2023-05-07T07:39:15;10.27;;;9.27;;
19089;SDS011;9677;50.656;13.064;2023-05-07T07:41:45;10.23;;;9.23;;
19089;SDS011;9677;50.656;13.064;2023-05-07T07:44:14;10.13;;;9.23;;
19089;SDS011;9677;50.656;13.064;2023-05-07T07:46:48;10.20;;;9.30;;
19089;SDS011;9677;50.656;13.064;2023-05-07T07:49:17;9.93;;;9.00;;
19089;SDS011;9677;50.656;13.064;2023-05-07T07:51:46;10.60;;;9.60;;
19089;SDS011;9677;50.656;13.064;2023-05-07T07:54:17;10.10;;;9.10;;
19089;SDS011;9677;50.656;13.064;2023-05-07T07:56:45;9.90;;;9.00;;
19089;SDS011;9677;50.656;13.064;2023-05-07T07:59:14;10.53;;;9.53;;
19089;SDS011;9677;50.656;13.064;2023-05-07T08:01:46;10.07;;;9.07;;
19089;SDS011;9677;50.656;13.064;2023-05-07T08:04:20;9.80;;;8.90;;
19089;SDS011;9677;50.656;13.064;2023-05-07T08:06:49;12.47;;;9.37;;
19089;SDS011;9677;50.656;13.064;2023-05-07T08:09:18;10.43;;;9.40;;
19089;SDS011;9677;50.656;13.064;2023-05-07T08:11:48;10.00;;;9.10;;
19089;SDS011;9677;50.656;13.064;2023-05-07T08:14:17;10.20;;;9.20;;
19089;SDS011;9677;50.656;13.064;2023-05-07T08:16:47;10.00;;;9.10;;
19089;SDS011;9677;50.656;13.064;2023-05-07T08:19:15;10.10;;;9.10;;
19089;SDS011;9677;50.656;13.064;2023-05-07T08:21:44;9.80;;;8.90;;
19089;SDS011;9677;50.656;13.064;2023-05-07T08:24:15;9.73;;;8.73;;
19089;SDS011;9677;50.656;13.064;2023-05-07T08:26:46;9.90;;;9.00;;
19089;SDS011;9677;50.656;13.064;2023-05-07T08:29:16;10.23;;;9.23;;
19089;SDS011;9677;50.656;13.064;2023-05-07T08:31:45;9.70;;;8.80;;
19089;SDS011;9677;50.656;13.064;2023-05-07T08:34:14;10.40;;;9.43;;
19089;SDS011;9677;50.656;13.064;2023-05-07T08:36:45;10.90;;;9.70;;
19089;SDS011;9677;50.656;13.064;2023-05-07T08:39:17;10.33;;;9.37;;
19089;SDS011;9677;50.656;13.064;2023-05-07T08:41:50;9.60;;;8.70;;
19089;SDS011;9677;50.656;13.064;2023-05-07T08:44:26;9.93;;;9.03;;
19089;SDS011;9677;50.656;13.064;2023-05-07T08:46:56;10.20;;;9.20;;
19089;SDS011;9677;50.656;13.064;2023-05-07T08:49:30;10.20;;;9.20;;
19089;SDS011;9677;50.656;13.064;2023-05-07T08:51:59;9.80;;;8.90;;
19089;SDS011;9677;50.656;13.064;2023-05-07T08:54:28;9.60;;;8.70;;
19089;SDS011;9677;50.656;13.064;2023-05-07T08:57:00;10.20;;;9.07;;
19089;SDS011;9677;50.656;13.064;2023-05-07T08:59:31;10.17;;;9.17;;
19089;SDS011;9677;50.656;13.064;2023-05-07T09:01:59;9.73;;;8.83;;
19089;SDS011;9677;50.656;13.064;2023-05-07T09:04:28;10.87;;;9.27;;
19089;SDS011;9677;50.656;13.064;2023-05-07T09:06:58;9.93;;;9.03;;
19089;SDS011;9677;50.656;13.064;2023-05-07T09:09:35;10.43;;;9.33;;
19089;SDS011;9677;50.656;13.064;2023-05-07T09:12:07;10.20;;;9.20;;
19089;SDS011;9677;50.656;13.064;2023-05-07T09:14:37;11.30;;;9.20;;
19089;SDS011;9677;50.656;13.064;2023-05-07T09:17:06;9.70;;;8.80;;
19089;SDS011;9677;50.656;13.064;2023-05-07T09:19:35;10.10;;;9.10;;
19089;SDS011;9677;50.656;13.064;2023-05-07T09:22:05;9.87;;;8.97;;
19089;SDS011;9677;50.656;13.064;2023-05-07T09:24:47;10.10;;;9.10;;
19089;SDS011;9677;50.656;13.064;2023-05-07T09:27:20;9.80;;;8.90;;
19089;SDS011;9677;50.656;13.064;2023-05-07T09:29:49;9.70;;;8.80;;
19089;SDS011;9677;50.656;13.064;2023-05-07T09:32:18;9.70;;;8.70;;
19089;SDS011;9677;50.656;13.064;2023-05-07T09:34:47;9.90;;;9.00;;
19089;SDS011;9677;50.656;13.064;2023-05-07T09:37:18;9.70;;;8.80;;
19089;SDS011;9677;50.656;13.064;2023-05-07T09:39:49;9.53;;;8.63;;
19089;SDS011;9677;50.656;13.064;2023-05-07T09:42:26;9.90;;;8.90;;
19089;SDS011;9677;50.656;13.064;2023-05-07T09:44:59;9.80;;;8.90;;
19089;SDS011;9677;50.656;13.064;2023-05-07T09:47:33;9.70;;;8.80;;
19089;SDS011;9677;50.656;13.064;2023-05-07T09:50:06;9.80;;;8.90;;
19089;SDS011;9677;50.656;13.064;2023-05-07T09:52:38;9.73;;;8.83;;
19089;SDS011;9677;50.656;13.064;2023-05-07T09:55:09;9.90;;;8.90;;
19089;SDS011;9677;50.656;13.064;2023-05-07T09:57:40;9.60;;;8.70;;
19089;SDS011;9677;50.656;13.064;2023-05-07T10:00:11;9.90;;;8.90;;
19089;SDS011;9677;50.656;13.064;2023-05-07T10:02:48;9.60;;;8.70;;
19089;SDS011;9677;50.656;13.064;2023-05-07T10:05:28;9.67;;;8.77;;
19089;SDS011;9677;50.656;13.064;2023-05-07T10:07:59;9.73;;;8.83;;
19089;SDS011;9677;50.656;13.064;2023-05-07T10:10:32;9.70;;;8.80;;
19089;SDS011;9677;50.656;13.064;2023-05-07T10:13:05;9.83;;;8.93;;
19089;SDS011;9677;50.656;13.064;2023-05-07T10:15:40;9.40;;;8.50;;
19089;SDS011;9677;50.656;13.064;2023-05-07T10:18:10;9.57;;;8.67;;
19089;SDS011;9677;50.656;13.064;2023-05-07T10:20:43;9.50;;;8.60;;
19089;SDS011;9677;50.656;13.064;2023-05-07T10:23:14;9.43;;;8.53;;
19089;SDS011;9677;50.656;13.064;2023-05-07T10:25:55;9.30;;;8.40;;
19089;SDS011;9677;50.656;13.064;2023-05-07T10:28:30;9.40;;;8.60;;
19089;SDS011;9677;50.656;13.064;2023-05-07T10:31:07;9.87;;;8.90;;
19089;SDS011;9677;50.656;13.064;2023-05-07T10:33:46;9.33;;;8.43;;
19089;SDS011;9677;50.656;13.064;2023-05-07T10:36:19;9.57;;;8.67;;
19089;SDS011;9677;50.656;13.064;2023-05-07T10:38:51;10.60;;;9.00;;
19089;SDS011;9677;50.656;13.064;2023-05-07T10:41:20;9.77;;;8.87;;
19089;SDS011;9677;50.656;13.064;2023-05-07T10:43:51;9.67;;;8.77;;
19089;SDS011;9677;50.656;13.064;2023-05-07T10:46:27;9.90;;;8.90;;
19089;SDS011;9677;50.656;13.064;2023-05-07T10:49:08;9.53;;;8.63;;
19089;SDS011;9677;50.656;13.064;2023-05-07T10:52:11;9.47;;;8.57;;
19089;SDS011;9677;50.656;13.064;2023-05-07T10:58:09;9.77;;;8.87;;
19089;SDS011;9677;50.656;13.064;2023-05-07T11:01:11;9.47;;;8.57;;
19089;SDS011;9677;50.656;13.064;2023-05-07T11:10:09;9.83;;;8.93;;
19089;SDS011;9677;50.656;13.064;2023-05-07T11:12:54;10.20;;;9.20;;
19089;SDS011;9677;50.656;13.064;2023-05-07T11:15:33;10.00;;;9.00;;
19089;SDS011;9677;50.656;13.064;2023-05-07T11:21:32;11.30;;;9.40;;
19089;SDS011;9677;50.656;13.064;2023-05-07T11:24:10;10.13;;;9.13;;
19089;SDS011;9677;50.656;13.064;2023-05-07T11:26:53;12.67;;;9.13;;
19089;SDS011;9677;50.656;13.064;2023-05-07T11:29:23;10.33;;;9.33;;
19089;SDS011;9677;50.656;13.064;2023-05-07T11:31:57;9.57;;;8.67;;
19089;SDS011;9677;50.656;13.064;2023-05-07T11:34:32;9.97;;;8.97;;
19089;SDS011;9677;50.656;13.064;2023-05-07T11:37:01;9.90;;;9.00;;
19089;SDS011;9677;50.656;13.064;2023-05-07T11:39:41;10.10;;;9.10;;
19089;SDS011;9677;50.656;13.064;2023-05-07T11:44:53;10.07;;;9.07;;
19089;SDS011;9677;50.656;13.064;2023-05-07T11:47:21;9.60;;;8.70;;
19089;SDS011;9677;50.656;13.064;2023-05-07T11:49:52;9.60;;;8.70;;
19089;SDS011;9677;50.656;13.064;2023-05-07T11:52:22;9.73;;;8.83;;
19089;SDS011;9677;50.656;13.064;2023-05-07T11:54:52;9.60;;;8.70;;
19089;SDS011;9677;50.656;13.064;2023-05-07T11:57:22;9.73;;;8.83;;
19089;SDS011;9677;50.656;13.064;2023-05-07T11:59:52;9.80;;;8.90;;
19089;SDS011;9677;50.656;13.064;2023-05-07T12:02:21;10.23;;;9.27;;
19089;SDS011;9677;50.656;13.064;2023-05-07T12:04:53;9.40;;;8.50;;
19089;SDS011;9677;50.656;13.064;2023-05-07T12:07:22;10.10;;;9.17;;
19089;SDS011;9677;50.656;13.064;2023-05-07T12:09:52;9.57;;;8.67;;
19089;SDS011;9677;50.656;13.064;2023-05-07T12:12:21;9.60;;;8.70;;
19089;SDS011;9677;50.656;13.064;2023-05-07T12:14:50;9.50;;;8.60;;
19089;SDS011;9677;50.656;13.064;2023-05-07T12:17:18;9.57;;;8.67;;
19089;SDS011;9677;50.656;13.064;2023-05-07T12:19:46;9.60;;;8.70;;
19089;SDS011;9677;50.656;13.064;2023-05-07T12:22:17;9.50;;;8.60;;
19089;SDS011;9677;50.656;13.064;2023-05-07T12:24:46;8.97;;;8.10;;
19089;SDS011;9677;50.656;13.064;2023-05-07T12:27:16;9.43;;;8.43;;
19089;SDS011;9677;50.656;13.064;2023-05-07T12:29:46;9.70;;;8.77;;
19089;SDS011;9677;50.656;13.064;2023-05-07T12:32:15;9.60;;;8.70;;
19089;SDS011;9677;50.656;13.064;2023-05-07T12:34:44;9.37;;;8.47;;
19089;SDS011;9677;50.656;13.064;2023-05-07T12:37:13;9.37;;;8.50;;
19089;SDS011;9677;50.656;13.064;2023-05-07T12:39:47;9.50;;;8.60;;
19089;SDS011;9677;50.656;13.064;2023-05-07T12:42:19;9.17;;;8.37;;
19089;SDS011;9677;50.656;13.064;2023-05-07T12:44:50;9.00;;;8.20;;
19089;SDS011;9677;50.656;13.064;2023-05-07T12:47:18;9.20;;;8.40;;
19089;SDS011;9677;50.656;13.064;2023-05-07T12:49:48;9.13;;;8.30;;
19089;SDS011;9677;50.656;13.064;2023-05-07T12:52:17;9.47;;;8.43;;
19089;SDS011;9677;50.656;13.064;2023-05-07T12:54:46;9.20;;;8.40;;
19089;SDS011;9677;50.656;13.064;2023-05-07T12:57:15;9.10;;;8.30;;
19089;SDS011;9677;50.656;13.064;2023-05-07T12:59:48;9.03;;;8.23;;
19089;SDS011;9677;50.656;13.064;2023-05-07T13:02:16;9.37;;;8.47;;
19089;SDS011;9677;50.656;13.064;2023-05-07T13:04:44;9.10;;;8.30;;
19089;SDS011;9677;50.656;13.064;2023-05-07T13:07:14;9.60;;;8.70;;
19089;SDS011;9677;50.656;13.064;2023-05-07T13:09:42;9.40;;;8.50;;
19089;SDS011;9677;50.656;13.064;2023-05-07T13:12:12;9.20;;;8.40;;
19089;SDS011;9677;50.656;13.064;2023-05-07T13:14:40;9.47;;;8.57;;
19089;SDS011;9677;50.656;13.064;2023-05-07T13:17:09;9.00;;;8.20;;
19089;SDS011;9677;50.656;13.064;2023-05-07T13:19:37;9.30;;;8.40;;
19089;SDS011;9677;50.656;13.064;2023-05-07T13:22:05;9.20;;;8.40;;
19089;SDS011;9677;50.656;13.064;2023-05-07T13:24:34;9.83;;;8.50;;
19089;SDS011;9677;50.656;13.064;2023-05-07T13:27:02;9.20;;;8.40;;
19089;SDS011;9677;50.656;13.064;2023-05-07T13:29:32;9.30;;;8.40;;
19089;SDS011;9677;50.656;13.064;2023-05-07T13:32:01;9.50;;;8.60;;
19089;SDS011;9677;50.656;13.064;2023-05-07T13:34:29;9.27;;;8.47;;
19089;SDS011;9677;50.656;13.064;2023-05-07T13:36:57;9.20;;;8.30;;
19089;SDS011;9677;50.656;13.064;2023-05-07T13:39:26;9.67;;;8.77;;
19089;SDS011;9677;50.656;13.064;2023-05-07T13:41:54;10.67;;;8.90;;
19089;SDS011;9677;50.656;13.064;2023-05-07T13:44:23;9.37;;;8.50;;
19089;SDS011;9677;50.656;13.064;2023-05-07T13:46:52;9.20;;;8.40;;
19089;SDS011;9677;50.656;13.064;2023-05-07T13:49:21;9.60;;;8.60;;
19089;SDS011;9677;50.656;13.064;2023-05-07T13:51:50;9.60;;;8.70;;
19089;SDS011;9677;50.656;13.064;2023-05-07T13:54:18;9.70;;;8.80;;
19089;SDS011;9677;50.656;13.064;2023-05-07T13:56:47;9.53;;;8.63;;
19089;SDS011;9677;50.656;13.064;2023-05-07T13:59:16;9.27;;;8.43;;
19089;SDS011;9677;50.656;13.064;2023-05-07T14:01:47;9.30;;;8.40;;
19089;SDS011;9677;50.656;13.064;2023-05-07T14:04:17;9.50;;;8.60;;
19089;SDS011;9677;50.656;13.064;2023-05-07T14:06:45;9.27;;;8.40;;
19089;SDS011;9677;50.656;13.064;2023-05-07T14:09:14;9.30;;;8.50;;
19089;SDS011;9677;50.656;13.064;2023-05-07T14:11:42;9.20;;;8.40;;
19089;SDS011;9677;50.656;13.064;2023-05-07T14:14:10;9.07;;;8.27;;
19089;SDS011;9677;50.656;13.064;2023-05-07T14:16:39;9.63;;;8.73;;
19089;SDS011;9677;50.656;13.064;2023-05-07T14:19:07;9.20;;;8.40;;
19089;SDS011;9677;50.656;13.064;2023-05-07T14:21:37;9.53;;;8.63;;
19089;SDS011;9677;50.656;13.064;2023-05-07T14:24:06;9.30;;;8.50;;
19089;SDS011;9677;50.656;13.064;2023-05-07T14:26:35;9.30;;;8.50;;
19089;SDS011;9677;50.656;13.064;2023-05-07T14:29:03;9.47;;;8.57;;
19089;SDS011;9677;50.656;13.064;2023-05-07T14:31:32;9.10;;;8.30;;
19089;SDS011;9677;50.656;13.064;2023-05-07T14:34:00;9.50;;;8.60;;
19089;SDS011;9677;50.656;13.064;2023-05-07T14:36:28;9.53;;;8.63;;
19089;SDS011;9677;50.656;13.064;2023-05-07T14:38:59;9.20;;;8.33;;
19089;SDS011;9677;50.656;13.064;2023-05-07T14:41:28;9.30;;;8.40;;
19089;SDS011;9677;50.656;13.064;2023-05-07T14:43:58;9.30;;;8.50;;
19089;SDS011;9677;50.656;13.064;2023-05-07T14:46:26;9.70;;;8.80;;
19089;SDS011;9677;50.656;13.064;2023-05-07T14:48:54;9.53;;;8.63;;
19089;SDS011;9677;50.656;13.064;2023-05-07T14:51:23;9.60;;;8.70;;
19089;SDS011;9677;50.656;13.064;2023-05-07T14:53:54;9.73;;;8.83;;
19089;SDS011;9677;50.656;13.064;2023-05-07T14:56:24;10.17;;;9.17;;
19089;SDS011;9677;50.656;13.064;2023-05-07T14:58:52;10.03;;;9.03;;
19089;SDS011;9677;50.656;13.064;2023-05-07T15:01:20;10.03;;;9.13;;
19089;SDS011;9677;50.656;13.064;2023-05-07T15:03:49;10.30;;;9.30;;
19089;SDS011;9677;50.656;13.064;2023-05-07T15:06:17;10.57;;;9.57;;
19089;SDS011;9677;50.656;13.064;2023-05-07T15:08:46;9.93;;;8.90;;
19089;SDS011;9677;50.656;13.064;2023-05-07T15:11:14;9.97;;;9.03;;